sensor_id;sensor_type;location;lat;lon;timestamp;P1;durP1;ratioP1;P2;durP2;ratioP2
29916;SDS011;16786;49.466;11.068;2022-12-18T00:01:27;85.18;;;38.85;;
29916;SDS011;16786;49.466;11.068;2022-12-18T00:03:56;107.70;;;49.97;;
29916;SDS011;16786;49.466;11.068;2022-12-18T00:06:26;104.55;;;47.83;;
29916;SDS011;16786;49.466;11.068;2022-12-18T00:08:55;100.25;;;45.90;;
29916;SDS011;16786;49.466;11.068;2022-12-18T00:11:24;104.47;;;47.22;;
29916;SDS011;16786;49.466;11.068;2022-12-18T00:13:54;90.88;;;42.15;;
29916;SDS011;16786;49.466;11.068;2022-12-18T00:16:24;98.15;;;45.97;;
29916;SDS011;16786;49.466;11.068;2022-12-18T00:18:53;105.82;;;48.85;;
29916;SDS011;16786;49.466;11.068;2022-12-18T00:21:23;114.85;;;48.40;;
29916;SDS011;16786;49.466;11.068;2022-12-18T00:23:50;121.40;;;50.92;;
29916;SDS011;16786;49.466;11.068;2022-12-18T00:26:22;125.93;;;53.33;;
29916;SDS011;16786;49.466;11.068;2022-12-18T00:28:58;126.72;;;54.88;;
29916;SDS011;16786;49.466;11.068;2022-12-18T00:31:28;142.40;;;59.38;;
29916;SDS011;16786;49.466;11.068;2022-12-18T00:33:56;128.40;;;54.15;;
29916;SDS011;16786;49.466;11.068;2022-12-18T00:36:25;122.75;;;51.65;;
29916;SDS011;16786;49.466;11.068;2022-12-18T00:38:55;103.13;;;43.87;;
29916;SDS011;16786;49.466;11.068;2022-12-18T00:41:23;96.65;;;42.55;;
29916;SDS011;16786;49.466;11.068;2022-12-18T00:44:10;83.30;;;37.88;;
29916;SDS011;16786;49.466;11.068;2022-12-18T00:46:40;87.50;;;39.08;;
29916;SDS011;16786;49.466;11.068;2022-12-18T00:49:07;94.53;;;43.65;;
29916;SDS011;16786;49.466;11.068;2022-12-18T00:51:38;97.53;;;44.83;;
29916;SDS011;16786;49.466;11.068;2022-12-18T00:54:05;99.07;;;43.25;;
29916;SDS011;16786;49.466;11.068;2022-12-18T00:56:34;100.43;;;45.20;;
29916;SDS011;16786;49.466;11.068;2022-12-18T00:59:14;88.10;;;42.85;;
29916;SDS011;16786;49.466;11.068;2022-12-18T01:01:43;95.72;;;43.05;;
29916;SDS011;16786;49.466;11.068;2022-12-18T01:04:11;86.70;;;42.53;;
29916;SDS011;16786;49.466;11.068;2022-12-18T01:06:39;88.20;;;42.20;;
29916;SDS011;16786;49.466;11.068;2022-12-18T01:09:06;93.32;;;42.67;;
29916;SDS011;16786;49.466;11.068;2022-12-18T01:11:35;99.70;;;45.97;;
29916;SDS011;16786;49.466;11.068;2022-12-18T01:14:03;64.47;;;29.60;;
29916;SDS011;16786;49.466;11.068;2022-12-18T01:16:31;58.90;;;26.50;;
29916;SDS011;16786;49.466;11.068;2022-12-18T01:18:58;68.63;;;29.83;;
29916;SDS011;16786;49.466;11.068;2022-12-18T01:21:26;59.05;;;26.80;;
29916;SDS011;16786;49.466;11.068;2022-12-18T01:23:54;53.20;;;26.35;;
29916;SDS011;16786;49.466;11.068;2022-12-18T01:26:22;53.88;;;25.33;;
29916;SDS011;16786;49.466;11.068;2022-12-18T01:28:51;57.53;;;26.50;;
29916;SDS011;16786;49.466;11.068;2022-12-18T01:31:26;70.93;;;33.83;;
29916;SDS011;16786;49.466;11.068;2022-12-18T01:33:56;74.75;;;32.33;;
29916;SDS011;16786;49.466;11.068;2022-12-18T01:36:25;75.68;;;34.80;;
29916;SDS011;16786;49.466;11.068;2022-12-18T01:38:54;88.80;;;40.15;;
29916;SDS011;16786;49.466;11.068;2022-12-18T01:41:23;86.15;;;40.42;;
29916;SDS011;16786;49.466;11.068;2022-12-18T01:43:54;86.90;;;42.30;;
29916;SDS011;16786;49.466;11.068;2022-12-18T01:46:24;96.70;;;42.70;;
29916;SDS011;16786;49.466;11.068;2022-12-18T01:51:28;94.43;;;40.30;;
29916;SDS011;16786;49.466;11.068;2022-12-18T01:53:56;90.63;;;41.47;;
29916;SDS011;16786;49.466;11.068;2022-12-18T01:56:25;89.97;;;39.65;;
29916;SDS011;16786;49.466;11.068;2022-12-18T01:59:03;93.43;;;40.42;;
29916;SDS011;16786;49.466;11.068;2022-12-18T02:01:34;99.15;;;41.25;;
29916;SDS011;16786;49.466;11.068;2022-12-18T02:06:55;83.53;;;38.60;;
29916;SDS011;16786;49.466;11.068;2022-12-18T02:09:38;79.90;;;36.22;;
29916;SDS011;16786;49.466;11.068;2022-12-18T02:12:20;83.63;;;38.97;;
29916;SDS011;16786;49.466;11.068;2022-12-18T02:17:52;84.63;;;38.80;;
29916;SDS011;16786;49.466;11.068;2022-12-18T02:28:27;72.57;;;33.28;;
29916;SDS011;16786;49.466;11.068;2022-12-18T02:31:02;77.88;;;35.22;;
29916;SDS011;16786;49.466;11.068;2022-12-18T02:33:33;77.40;;;34.85;;
29916;SDS011;16786;49.466;11.068;2022-12-18T02:36:03;79.63;;;34.22;;
29916;SDS011;16786;49.466;11.068;2022-12-18T02:38:32;68.35;;;32.70;;
29916;SDS011;16786;49.466;11.068;2022-12-18T02:41:08;82.80;;;33.72;;
29916;SDS011;16786;49.466;11.068;2022-12-18T02:43:36;75.70;;;33.22;;
29916;SDS011;16786;49.466;11.068;2022-12-18T03:03:31;80.50;;;29.88;;
29916;SDS011;16786;49.466;11.068;2022-12-18T03:06:43;77.82;;;31.38;;
29916;SDS011;16786;49.466;11.068;2022-12-18T03:09:17;84.82;;;30.58;;
29916;SDS011;16786;49.466;11.068;2022-12-18T03:11:52;74.25;;;30.80;;
29916;SDS011;16786;49.466;11.068;2022-12-18T03:14:42;68.82;;;27.88;;
29916;SDS011;16786;49.466;11.068;2022-12-18T03:19:43;70.47;;;27.02;;
29916;SDS011;16786;49.466;11.068;2022-12-18T03:22:13;72.15;;;28.42;;
29916;SDS011;16786;49.466;11.068;2022-12-18T03:24:47;72.60;;;28.52;;
29916;SDS011;16786;49.466;11.068;2022-12-18T03:27:17;69.25;;;28.30;;
29916;SDS011;16786;49.466;11.068;2022-12-18T03:29:50;70.47;;;27.25;;
29916;SDS011;16786;49.466;11.068;2022-12-18T03:35:30;68.40;;;26.15;;
29916;SDS011;16786;49.466;11.068;2022-12-18T03:38:03;71.85;;;28.35;;
29916;SDS011;16786;49.466;11.068;2022-12-18T03:40:57;69.85;;;27.08;;
29916;SDS011;16786;49.466;11.068;2022-12-18T03:49:07;69.05;;;25.30;;
29916;SDS011;16786;49.466;11.068;2022-12-18T03:51:40;64.88;;;25.83;;
29916;SDS011;16786;49.466;11.068;2022-12-18T03:54:14;63.80;;;24.55;;
29916;SDS011;16786;49.466;11.068;2022-12-18T03:56:54;67.78;;;26.92;;
29916;SDS011;16786;49.466;11.068;2022-12-18T03:59:29;65.47;;;25.65;;
29916;SDS011;16786;49.466;11.068;2022-12-18T04:01:58;55.22;;;24.73;;
29916;SDS011;16786;49.466;11.068;2022-12-18T04:04:28;65.43;;;25.38;;
29916;SDS011;16786;49.466;11.068;2022-12-18T04:07:00;63.97;;;25.75;;
29916;SDS011;16786;49.466;11.068;2022-12-18T04:09:31;67.63;;;26.35;;
29916;SDS011;16786;49.466;11.068;2022-12-18T04:12:00;60.28;;;24.45;;
29916;SDS011;16786;49.466;11.068;2022-12-18T04:14:28;60.08;;;24.17;;
29916;SDS011;16786;49.466;11.068;2022-12-18T04:16:56;69.82;;;25.10;;
29916;SDS011;16786;49.466;11.068;2022-12-18T04:19:28;63.28;;;25.33;;
29916;SDS011;16786;49.466;11.068;2022-12-18T04:21:57;59.47;;;25.00;;
29916;SDS011;16786;49.466;11.068;2022-12-18T04:24:26;63.45;;;24.63;;
29916;SDS011;16786;49.466;11.068;2022-12-18T04:27:04;60.28;;;23.02;;
29916;SDS011;16786;49.466;11.068;2022-12-18T04:29:38;54.13;;;24.13;;
29916;SDS011;16786;49.466;11.068;2022-12-18T04:32:05;59.03;;;25.17;;
29916;SDS011;16786;49.466;11.068;2022-12-18T04:34:33;61.80;;;25.65;;
29916;SDS011;16786;49.466;11.068;2022-12-18T04:37:01;54.00;;;23.52;;
29916;SDS011;16786;49.466;11.068;2022-12-18T04:39:29;58.53;;;22.38;;
29916;SDS011;16786;49.466;11.068;2022-12-18T04:42:02;57.50;;;23.88;;
29916;SDS011;16786;49.466;11.068;2022-12-18T04:44:29;58.30;;;24.55;;
29916;SDS011;16786;49.466;11.068;2022-12-18T04:46:57;54.85;;;23.77;;
29916;SDS011;16786;49.466;11.068;2022-12-18T04:49:24;54.33;;;22.33;;
29916;SDS011;16786;49.466;11.068;2022-12-18T04:51:53;49.58;;;21.30;;
29916;SDS011;16786;49.466;11.068;2022-12-18T04:54:20;54.55;;;23.85;;
29916;SDS011;16786;49.466;11.068;2022-12-18T04:56:48;51.60;;;22.38;;
29916;SDS011;16786;49.466;11.068;2022-12-18T04:59:15;58.72;;;24.02;;
29916;SDS011;16786;49.466;11.068;2022-12-18T05:01:42;50.70;;;21.45;;
29916;SDS011;16786;49.466;11.068;2022-12-18T05:04:10;52.30;;;21.50;;
29916;SDS011;16786;49.466;11.068;2022-12-18T05:06:37;52.83;;;23.08;;
29916;SDS011;16786;49.466;11.068;2022-12-18T05:09:04;51.00;;;21.77;;
29916;SDS011;16786;49.466;11.068;2022-12-18T05:11:31;49.53;;;21.65;;
29916;SDS011;16786;49.466;11.068;2022-12-18T05:13:59;46.60;;;22.02;;
29916;SDS011;16786;49.466;11.068;2022-12-18T05:16:26;54.25;;;21.40;;
29916;SDS011;16786;49.466;11.068;2022-12-18T05:18:53;55.72;;;21.80;;
29916;SDS011;16786;49.466;11.068;2022-12-18T05:21:21;46.22;;;20.25;;
29916;SDS011;16786;49.466;11.068;2022-12-18T05:23:48;52.00;;;21.08;;
29916;SDS011;16786;49.466;11.068;2022-12-18T05:26:16;54.55;;;22.23;;
29916;SDS011;16786;49.466;11.068;2022-12-18T05:28:44;48.20;;;21.35;;
29916;SDS011;16786;49.466;11.068;2022-12-18T05:31:12;54.35;;;21.42;;
29916;SDS011;16786;49.466;11.068;2022-12-18T05:33:40;51.67;;;22.27;;
29916;SDS011;16786;49.466;11.068;2022-12-18T05:36:09;44.97;;;20.92;;
29916;SDS011;16786;49.466;11.068;2022-12-18T05:38:37;49.65;;;21.27;;
29916;SDS011;16786;49.466;11.068;2022-12-18T05:41:06;54.75;;;22.63;;
29916;SDS011;16786;49.466;11.068;2022-12-18T05:43:34;49.55;;;21.10;;
29916;SDS011;16786;49.466;11.068;2022-12-18T05:46:05;51.05;;;23.10;;
29916;SDS011;16786;49.466;11.068;2022-12-18T05:48:38;51.78;;;22.65;;
29916;SDS011;16786;49.466;11.068;2022-12-18T05:51:10;52.33;;;22.88;;
29916;SDS011;16786;49.466;11.068;2022-12-18T05:53:38;52.28;;;22.40;;
29916;SDS011;16786;49.466;11.068;2022-12-18T05:56:07;58.08;;;22.10;;
29916;SDS011;16786;49.466;11.068;2022-12-18T05:58:39;47.05;;;21.27;;
29916;SDS011;16786;49.466;11.068;2022-12-18T06:01:14;51.63;;;22.30;;
29916;SDS011;16786;49.466;11.068;2022-12-18T06:03:44;56.83;;;22.45;;
29916;SDS011;16786;49.466;11.068;2022-12-18T06:06:16;52.58;;;21.70;;
29916;SDS011;16786;49.466;11.068;2022-12-18T06:08:46;53.58;;;22.88;;
29916;SDS011;16786;49.466;11.068;2022-12-18T06:11:15;53.22;;;20.92;;
29916;SDS011;16786;49.466;11.068;2022-12-18T06:13:45;53.53;;;21.95;;
29916;SDS011;16786;49.466;11.068;2022-12-18T06:16:13;54.75;;;22.40;;
29916;SDS011;16786;49.466;11.068;2022-12-18T06:18:40;51.20;;;21.73;;
29916;SDS011;16786;49.466;11.068;2022-12-18T06:21:08;51.42;;;21.55;;
29916;SDS011;16786;49.466;11.068;2022-12-18T06:23:35;49.78;;;21.17;;
29916;SDS011;16786;49.466;11.068;2022-12-18T06:26:07;50.20;;;21.30;;
29916;SDS011;16786;49.466;11.068;2022-12-18T06:28:35;50.78;;;21.00;;
29916;SDS011;16786;49.466;11.068;2022-12-18T06:31:03;53.55;;;21.63;;
29916;SDS011;16786;49.466;11.068;2022-12-18T06:33:31;51.70;;;20.23;;
29916;SDS011;16786;49.466;11.068;2022-12-18T06:36:00;48.38;;;19.80;;
29916;SDS011;16786;49.466;11.068;2022-12-18T06:38:28;48.38;;;21.17;;
29916;SDS011;16786;49.466;11.068;2022-12-18T06:40:55;53.17;;;20.02;;
29916;SDS011;16786;49.466;11.068;2022-12-18T06:43:23;45.60;;;21.23;;
29916;SDS011;16786;49.466;11.068;2022-12-18T06:45:50;54.10;;;20.95;;
29916;SDS011;16786;49.466;11.068;2022-12-18T06:48:19;54.50;;;21.58;;
29916;SDS011;16786;49.466;11.068;2022-12-18T06:50:47;55.63;;;21.50;;
29916;SDS011;16786;49.466;11.068;2022-12-18T06:53:14;49.88;;;20.27;;
29916;SDS011;16786;49.466;11.068;2022-12-18T06:55:41;54.33;;;21.55;;
29916;SDS011;16786;49.466;11.068;2022-12-18T06:58:09;49.25;;;21.98;;
29916;SDS011;16786;49.466;11.068;2022-12-18T07:00:37;50.92;;;19.73;;
29916;SDS011;16786;49.466;11.068;2022-12-18T07:03:04;49.50;;;21.15;;
29916;SDS011;16786;49.466;11.068;2022-12-18T07:05:32;49.33;;;21.10;;
29916;SDS011;16786;49.466;11.068;2022-12-18T07:07:59;48.88;;;20.27;;
29916;SDS011;16786;49.466;11.068;2022-12-18T07:10:26;45.40;;;19.23;;
29916;SDS011;16786;49.466;11.068;2022-12-18T07:12:54;55.78;;;20.48;;
29916;SDS011;16786;49.466;11.068;2022-12-18T07:15:21;50.67;;;20.48;;
29916;SDS011;16786;49.466;11.068;2022-12-18T07:17:48;53.50;;;20.10;;
29916;SDS011;16786;49.466;11.068;2022-12-18T07:20:16;56.80;;;21.58;;
29916;SDS011;16786;49.466;11.068;2022-12-18T07:22:43;54.03;;;21.45;;
29916;SDS011;16786;49.466;11.068;2022-12-18T07:25:10;47.30;;;20.05;;
29916;SDS011;16786;49.466;11.068;2022-12-18T07:27:37;47.85;;;21.60;;
29916;SDS011;16786;49.466;11.068;2022-12-18T07:30:05;50.55;;;20.55;;
29916;SDS011;16786;49.466;11.068;2022-12-18T07:32:33;54.47;;;20.60;;
29916;SDS011;16786;49.466;11.068;2022-12-18T07:35:00;47.95;;;20.83;;
29916;SDS011;16786;49.466;11.068;2022-12-18T07:37:28;54.55;;;21.63;;
29916;SDS011;16786;49.466;11.068;2022-12-18T07:39:55;49.70;;;21.17;;
29916;SDS011;16786;49.466;11.068;2022-12-18T07:42:22;48.53;;;20.48;;
29916;SDS011;16786;49.466;11.068;2022-12-18T07:44:59;48.92;;;21.05;;
29916;SDS011;16786;49.466;11.068;2022-12-18T07:47:27;50.13;;;22.15;;
29916;SDS011;16786;49.466;11.068;2022-12-18T07:49:58;45.03;;;20.48;;
29916;SDS011;16786;49.466;11.068;2022-12-18T07:52:25;50.70;;;20.85;;
29916;SDS011;16786;49.466;11.068;2022-12-18T07:54:53;51.45;;;20.23;;
29916;SDS011;16786;49.466;11.068;2022-12-18T07:57:20;44.65;;;19.42;;
29916;SDS011;16786;49.466;11.068;2022-12-18T08:00:07;56.42;;;21.77;;
29916;SDS011;16786;49.466;11.068;2022-12-18T08:02:38;39.43;;;17.47;;
29916;SDS011;16786;49.466;11.068;2022-12-18T08:05:07;48.45;;;21.30;;
29916;SDS011;16786;49.466;11.068;2022-12-18T08:07:35;50.35;;;19.63;;
29916;SDS011;16786;49.466;11.068;2022-12-18T08:10:03;49.45;;;20.58;;
29916;SDS011;16786;49.466;11.068;2022-12-18T08:12:31;49.40;;;21.60;;
29916;SDS011;16786;49.466;11.068;2022-12-18T08:14:59;53.17;;;21.25;;
29916;SDS011;16786;49.466;11.068;2022-12-18T08:17:26;53.90;;;21.52;;
29916;SDS011;16786;49.466;11.068;2022-12-18T08:19:53;55.60;;;22.40;;
29916;SDS011;16786;49.466;11.068;2022-12-18T08:22:21;53.45;;;22.00;;
29916;SDS011;16786;49.466;11.068;2022-12-18T08:24:48;52.83;;;21.02;;
29916;SDS011;16786;49.466;11.068;2022-12-18T08:27:15;53.55;;;21.55;;
29916;SDS011;16786;49.466;11.068;2022-12-18T08:29:58;43.15;;;20.40;;
29916;SDS011;16786;49.466;11.068;2022-12-18T08:32:26;48.05;;;19.92;;
29916;SDS011;16786;49.466;11.068;2022-12-18T08:34:54;47.72;;;20.65;;
29916;SDS011;16786;49.466;11.068;2022-12-18T08:37:22;54.95;;;23.13;;
29916;SDS011;16786;49.466;11.068;2022-12-18T08:39:49;47.38;;;20.83;;
29916;SDS011;16786;49.466;11.068;2022-12-18T08:42:16;47.10;;;19.95;;
29916;SDS011;16786;49.466;11.068;2022-12-18T08:45:02;47.03;;;19.58;;
29916;SDS011;16786;49.466;11.068;2022-12-18T08:47:30;46.05;;;20.27;;
29916;SDS011;16786;49.466;11.068;2022-12-18T08:49:58;48.15;;;22.13;;
29916;SDS011;16786;49.466;11.068;2022-12-18T08:52:25;48.15;;;21.25;;
29916;SDS011;16786;49.466;11.068;2022-12-18T08:54:52;45.03;;;21.17;;
29916;SDS011;16786;49.466;11.068;2022-12-18T08:57:19;52.15;;;22.30;;
29916;SDS011;16786;49.466;11.068;2022-12-18T08:59:47;49.72;;;20.75;;
29916;SDS011;16786;49.466;11.068;2022-12-18T09:02:14;50.20;;;21.95;;
29916;SDS011;16786;49.466;11.068;2022-12-18T09:04:42;45.25;;;19.85;;
29916;SDS011;16786;49.466;11.068;2022-12-18T09:07:12;47.55;;;19.25;;
29916;SDS011;16786;49.466;11.068;2022-12-18T09:09:39;53.47;;;22.33;;
29916;SDS011;16786;49.466;11.068;2022-12-18T09:12:06;48.70;;;20.77;;
29916;SDS011;16786;49.466;11.068;2022-12-18T09:14:34;49.03;;;21.02;;
29916;SDS011;16786;49.466;11.068;2022-12-18T09:17:02;46.40;;;20.65;;
29916;SDS011;16786;49.466;11.068;2022-12-18T09:19:29;53.20;;;22.67;;
29916;SDS011;16786;49.466;11.068;2022-12-18T09:21:56;47.70;;;21.20;;
29916;SDS011;16786;49.466;11.068;2022-12-18T09:24:24;45.67;;;19.48;;
29916;SDS011;16786;49.466;11.068;2022-12-18T09:26:54;46.13;;;19.23;;
29916;SDS011;16786;49.466;11.068;2022-12-18T09:29:23;45.20;;;20.02;;
29916;SDS011;16786;49.466;11.068;2022-12-18T09:31:51;44.20;;;19.95;;
29916;SDS011;16786;49.466;11.068;2022-12-18T09:34:18;43.88;;;20.38;;
29916;SDS011;16786;49.466;11.068;2022-12-18T09:36:48;37.63;;;17.08;;
29916;SDS011;16786;49.466;11.068;2022-12-18T09:39:15;39.63;;;18.75;;
29916;SDS011;16786;49.466;11.068;2022-12-18T09:41:55;43.22;;;19.25;;
29916;SDS011;16786;49.466;11.068;2022-12-18T09:44:36;47.67;;;19.63;;
29916;SDS011;16786;49.466;11.068;2022-12-18T09:49:49;41.85;;;18.75;;
29916;SDS011;16786;49.466;11.068;2022-12-18T09:52:29;41.88;;;19.02;;
29916;SDS011;16786;49.466;11.068;2022-12-18T09:57:40;42.67;;;20.08;;
29916;SDS011;16786;49.466;11.068;2022-12-18T10:00:24;42.95;;;19.10;;
29916;SDS011;16786;49.466;11.068;2022-12-18T10:02:52;47.90;;;20.35;;
29916;SDS011;16786;49.466;11.068;2022-12-18T10:14:33;46.35;;;21.63;;
29916;SDS011;16786;49.466;11.068;2022-12-18T10:20:34;41.70;;;19.23;;
29916;SDS011;16786;49.466;11.068;2022-12-18T10:25:53;37.08;;;17.05;;
29916;SDS011;16786;49.466;11.068;2022-12-18T10:28:31;39.10;;;18.15;;
29916;SDS011;16786;49.466;11.068;2022-12-18T10:31:00;36.65;;;17.98;;
29916;SDS011;16786;49.466;11.068;2022-12-18T10:33:28;38.22;;;17.80;;
29916;SDS011;16786;49.466;11.068;2022-12-18T10:35:57;35.05;;;16.50;;
29916;SDS011;16786;49.466;11.068;2022-12-18T10:38:25;34.67;;;16.98;;
29916;SDS011;16786;49.466;11.068;2022-12-18T10:43:32;37.20;;;17.80;;
29916;SDS011;16786;49.466;11.068;2022-12-18T10:48:39;38.00;;;18.52;;
29916;SDS011;16786;49.466;11.068;2022-12-18T10:53:59;40.88;;;18.77;;
29916;SDS011;16786;49.466;11.068;2022-12-18T10:56:35;44.28;;;21.08;;
29916;SDS011;16786;49.466;11.068;2022-12-18T10:59:05;40.88;;;20.77;;
29916;SDS011;16786;49.466;11.068;2022-12-18T11:01:48;39.70;;;19.08;;
29916;SDS011;16786;49.466;11.068;2022-12-18T11:04:26;38.88;;;19.17;;
29916;SDS011;16786;49.466;11.068;2022-12-18T11:07:00;36.75;;;19.20;;
29916;SDS011;16786;49.466;11.068;2022-12-18T11:09:33;41.95;;;19.90;;
29916;SDS011;16786;49.466;11.068;2022-12-18T11:12:13;41.22;;;18.33;;
29916;SDS011;16786;49.466;11.068;2022-12-18T11:14:47;42.00;;;20.63;;
29916;SDS011;16786;49.466;11.068;2022-12-18T11:17:21;35.83;;;17.83;;
29916;SDS011;16786;49.466;11.068;2022-12-18T11:19:55;39.60;;;18.83;;
29916;SDS011;16786;49.466;11.068;2022-12-18T11:22:33;35.17;;;18.05;;
29916;SDS011;16786;49.466;11.068;2022-12-18T11:28:02;38.20;;;17.90;;
29916;SDS011;16786;49.466;11.068;2022-12-18T11:30:32;42.45;;;20.75;;
29916;SDS011;16786;49.466;11.068;2022-12-18T11:35:35;39.55;;;21.17;;
29916;SDS011;16786;49.466;11.068;2022-12-18T11:38:18;34.50;;;19.10;;
29916;SDS011;16786;49.466;11.068;2022-12-18T11:43:38;31.67;;;17.40;;
29916;SDS011;16786;49.466;11.068;2022-12-18T11:48:57;30.42;;;16.67;;
29916;SDS011;16786;49.466;11.068;2022-12-18T11:52:35;30.20;;;17.40;;
29916;SDS011;16786;49.466;11.068;2022-12-18T11:54:43;35.97;;;21.33;;
29916;SDS011;16786;49.466;11.068;2022-12-18T11:57:20;33.42;;;19.70;;
29916;SDS011;16786;49.466;11.068;2022-12-18T12:00:08;32.60;;;18.42;;
29916;SDS011;16786;49.466;11.068;2022-12-18T12:05:28;33.67;;;17.88;;
29916;SDS011;16786;49.466;11.068;2022-12-18T12:10:56;41.30;;;21.05;;
29916;SDS011;16786;49.466;11.068;2022-12-18T12:24:51;36.47;;;19.95;;
29916;SDS011;16786;49.466;11.068;2022-12-18T12:37:09;38.78;;;19.98;;
29916;SDS011;16786;49.466;11.068;2022-12-18T12:39:50;39.15;;;21.48;;
29916;SDS011;16786;49.466;11.068;2022-12-18T12:45:14;45.60;;;22.88;;
29916;SDS011;16786;49.466;11.068;2022-12-18T12:47:48;48.78;;;23.70;;
29916;SDS011;16786;49.466;11.068;2022-12-18T12:50:17;40.50;;;22.33;;
29916;SDS011;16786;49.466;11.068;2022-12-18T12:52:52;42.60;;;21.88;;
29916;SDS011;16786;49.466;11.068;2022-12-18T12:55:25;42.35;;;20.83;;
29916;SDS011;16786;49.466;11.068;2022-12-18T13:00:49;35.33;;;18.98;;
29916;SDS011;16786;49.466;11.068;2022-12-18T13:03:28;38.17;;;20.55;;
29916;SDS011;16786;49.466;11.068;2022-12-18T13:06:03;38.35;;;20.70;;
29916;SDS011;16786;49.466;11.068;2022-12-18T13:08:59;33.03;;;19.02;;
29916;SDS011;16786;49.466;11.068;2022-12-18T13:11:41;31.67;;;17.75;;
29916;SDS011;16786;49.466;11.068;2022-12-18T13:19:51;39.75;;;21.33;;
29916;SDS011;16786;49.466;11.068;2022-12-18T13:35:50;31.85;;;18.20;;
29916;SDS011;16786;49.466;11.068;2022-12-18T13:38:35;31.92;;;17.73;;
29916;SDS011;16786;49.466;11.068;2022-12-18T13:43:46;34.55;;;19.92;;
29916;SDS011;16786;49.466;11.068;2022-12-18T13:51:42;41.80;;;22.65;;
29916;SDS011;16786;49.466;11.068;2022-12-18T13:57:23;31.38;;;17.52;;
29916;SDS011;16786;49.466;11.068;2022-12-18T13:59:52;33.20;;;18.05;;
29916;SDS011;16786;49.466;11.068;2022-12-18T14:02:26;34.08;;;17.08;;
29916;SDS011;16786;49.466;11.068;2022-12-18T14:04:55;33.50;;;17.40;;
29916;SDS011;16786;49.466;11.068;2022-12-18T14:07:24;35.60;;;17.50;;
29916;SDS011;16786;49.466;11.068;2022-12-18T14:10:00;34.50;;;18.27;;
29916;SDS011;16786;49.466;11.068;2022-12-18T14:12:49;33.42;;;17.45;;
29916;SDS011;16786;49.466;11.068;2022-12-18T14:18:03;38.53;;;20.45;;
29916;SDS011;16786;49.466;11.068;2022-12-18T14:20:45;36.67;;;17.38;;
29916;SDS011;16786;49.466;11.068;2022-12-18T14:26:03;36.50;;;18.30;;
29916;SDS011;16786;49.466;11.068;2022-12-18T14:28:50;40.50;;;18.67;;
29916;SDS011;16786;49.466;11.068;2022-12-18T14:31:18;40.42;;;21.33;;
29916;SDS011;16786;49.466;11.068;2022-12-18T14:33:53;43.83;;;22.23;;
29916;SDS011;16786;49.466;11.068;2022-12-18T14:36:22;41.45;;;21.45;;
29916;SDS011;16786;49.466;11.068;2022-12-18T14:38:52;42.88;;;19.75;;
29916;SDS011;16786;49.466;11.068;2022-12-18T14:41:24;34.42;;;19.30;;
29916;SDS011;16786;49.466;11.068;2022-12-18T14:43:53;35.95;;;19.08;;
29916;SDS011;16786;49.466;11.068;2022-12-18T14:49:04;40.92;;;19.95;;
29916;SDS011;16786;49.466;11.068;2022-12-18T14:51:48;43.78;;;20.38;;
29916;SDS011;16786;49.466;11.068;2022-12-18T14:54:19;56.13;;;28.55;;
29916;SDS011;16786;49.466;11.068;2022-12-18T14:57:12;54.35;;;28.23;;
29916;SDS011;16786;49.466;11.068;2022-12-18T14:59:40;47.60;;;23.88;;
29916;SDS011;16786;49.466;11.068;2022-12-18T15:02:19;40.33;;;20.75;;
29916;SDS011;16786;49.466;11.068;2022-12-18T15:07:45;41.45;;;19.73;;
29916;SDS011;16786;49.466;11.068;2022-12-18T15:20:43;46.80;;;22.27;;
29916;SDS011;16786;49.466;11.068;2022-12-18T15:25:58;50.92;;;22.75;;
29916;SDS011;16786;49.466;11.068;2022-12-18T15:31:49;52.70;;;22.90;;
29916;SDS011;16786;49.466;11.068;2022-12-18T15:36:26;42.80;;;19.90;;
29916;SDS011;16786;49.466;11.068;2022-12-18T15:38:54;47.92;;;21.75;;
29916;SDS011;16786;49.466;11.068;2022-12-18T15:41:32;49.38;;;22.73;;
29916;SDS011;16786;49.466;11.068;2022-12-18T15:44:02;47.78;;;22.33;;
29916;SDS011;16786;49.466;11.068;2022-12-18T15:46:30;47.83;;;21.17;;
29916;SDS011;16786;49.466;11.068;2022-12-18T15:48:58;51.58;;;23.15;;
29916;SDS011;16786;49.466;11.068;2022-12-18T15:51:29;46.55;;;20.35;;
29916;SDS011;16786;49.466;11.068;2022-12-18T15:54:03;42.45;;;20.83;;
29916;SDS011;16786;49.466;11.068;2022-12-18T15:56:32;51.53;;;21.38;;
29916;SDS011;16786;49.466;11.068;2022-12-18T15:59:19;45.30;;;21.02;;
29916;SDS011;16786;49.466;11.068;2022-12-18T16:01:48;49.90;;;22.30;;
29916;SDS011;16786;49.466;11.068;2022-12-18T16:04:18;51.95;;;22.73;;
29916;SDS011;16786;49.466;11.068;2022-12-18T16:06:50;43.55;;;19.33;;
29916;SDS011;16786;49.466;11.068;2022-12-18T16:09:38;46.37;;;20.07;;
29916;SDS011;16786;49.466;11.068;2022-12-18T16:12:06;43.65;;;19.05;;
29916;SDS011;16786;49.466;11.068;2022-12-18T16:14:40;47.92;;;19.92;;
29916;SDS011;16786;49.466;11.068;2022-12-18T16:17:09;48.38;;;20.58;;
29916;SDS011;16786;49.466;11.068;2022-12-18T16:19:38;51.22;;;22.70;;
29916;SDS011;16786;49.466;11.068;2022-12-18T16:22:05;52.42;;;22.83;;
29916;SDS011;16786;49.466;11.068;2022-12-18T16:24:41;44.58;;;20.25;;
29916;SDS011;16786;49.466;11.068;2022-12-18T16:27:10;41.72;;;19.55;;
29916;SDS011;16786;49.466;11.068;2022-12-18T16:29:37;44.13;;;20.63;;
29916;SDS011;16786;49.466;11.068;2022-12-18T16:32:04;47.78;;;21.08;;
29916;SDS011;16786;49.466;11.068;2022-12-18T16:34:32;50.08;;;21.35;;
29916;SDS011;16786;49.466;11.068;2022-12-18T16:37:02;44.80;;;19.80;;
29916;SDS011;16786;49.466;11.068;2022-12-18T16:39:32;45.28;;;20.75;;
29916;SDS011;16786;49.466;11.068;2022-12-18T16:42:05;44.63;;;20.02;;
29916;SDS011;16786;49.466;11.068;2022-12-18T16:44:41;48.97;;;20.67;;
29916;SDS011;16786;49.466;11.068;2022-12-18T16:47:09;47.47;;;21.00;;
29916;SDS011;16786;49.466;11.068;2022-12-18T16:49:41;49.10;;;22.60;;
29916;SDS011;16786;49.466;11.068;2022-12-18T16:52:09;52.15;;;22.25;;
29916;SDS011;16786;49.466;11.068;2022-12-18T16:54:36;46.70;;;22.10;;
29916;SDS011;16786;49.466;11.068;2022-12-18T16:57:03;47.28;;;21.27;;
29916;SDS011;16786;49.466;11.068;2022-12-18T16:59:31;52.90;;;22.20;;
29916;SDS011;16786;49.466;11.068;2022-12-18T17:01:59;49.10;;;22.65;;
29916;SDS011;16786;49.466;11.068;2022-12-18T17:04:27;50.45;;;22.40;;
29916;SDS011;16786;49.466;11.068;2022-12-18T17:06:55;52.95;;;22.15;;
29916;SDS011;16786;49.466;11.068;2022-12-18T17:09:22;47.88;;;20.20;;
29916;SDS011;16786;49.466;11.068;2022-12-18T17:11:53;52.17;;;22.65;;
29916;SDS011;16786;49.466;11.068;2022-12-18T17:14:27;48.97;;;21.30;;
29916;SDS011;16786;49.466;11.068;2022-12-18T17:16:56;51.03;;;21.50;;
29916;SDS011;16786;49.466;11.068;2022-12-18T17:19:43;54.53;;;21.92;;
29916;SDS011;16786;49.466;11.068;2022-12-18T17:22:11;48.85;;;21.85;;
29916;SDS011;16786;49.466;11.068;2022-12-18T17:24:38;55.03;;;24.00;;
29916;SDS011;16786;49.466;11.068;2022-12-18T17:27:06;67.45;;;26.60;;
29916;SDS011;16786;49.466;11.068;2022-12-18T17:29:44;60.05;;;24.50;;